sensor_id;sensor_type;location;lat;lon;timestamp;temperature;humidity
72380;SHT30;60354;47.798;12.472;2023-05-13T00:02:02;10.60;91.77
72380;SHT30;60354;47.798;12.472;2023-05-13T00:04:28;10.57;91.72
72380;SHT30;60354;47.798;12.472;2023-05-13T00:06:54;10.61;91.48
72380;SHT30;60354;47.798;12.472;2023-05-13T00:09:19;10.55;92.23
72380;SHT30;60354;47.798;12.472;2023-05-13T00:11:45;10.57;92.16
72380;SHT30;60354;47.798;12.472;2023-05-13T00:14:10;10.54;92.16
72380;SHT30;60354;47.798;12.472;2023-05-13T00:16:36;10.53;91.52
72380;SHT30;60354;47.798;12.472;2023-05-13T00:19:01;10.45;92.25
72380;SHT30;60354;47.798;12.472;2023-05-13T00:21:27;10.34;92.17
72380;SHT30;60354;47.798;12.472;2023-05-13T00:23:53;10.32;92.96
72380;SHT30;60354;47.798;12.472;2023-05-13T00:26:18;10.32;92.66
72380;SHT30;60354;47.798;12.472;2023-05-13T00:28:46;10.32;92.96
72380;SHT30;60354;47.798;12.472;2023-05-13T00:31:12;10.23;93.11
72380;SHT30;60354;47.798;12.472;2023-05-13T00:33:37;10.36;93.17
72380;SHT30;60354;47.798;12.472;2023-05-13T00:36:03;10.26;93.13
72380;SHT30;60354;47.798;12.472;2023-05-13T00:38:29;10.30;92.86
72380;SHT30;60354;47.798;12.472;2023-05-13T00:40:54;10.29;92.51
72380;SHT30;60354;47.798;12.472;2023-05-13T00:43:20;10.38;92.82
72380;SHT30;60354;47.798;12.472;2023-05-13T00:45:46;10.43;92.42
72380;SHT30;60354;47.798;12.472;2023-05-13T00:48:11;10.47;91.85
72380;SHT30;60354;47.798;12.472;2023-05-13T00:50:38;10.50;92.06
72380;SHT30;60354;47.798;12.472;2023-05-13T00:53:03;10.57;91.89
72380;SHT30;60354;47.798;12.472;2023-05-13T00:55:29;10.57;91.88
72380;SHT30;60354;47.798;12.472;2023-05-13T00:57:54;10.60;91.81
72380;SHT30;60354;47.798;12.472;2023-05-13T01:00:20;10.60;92.02
72380;SHT30;60354;47.798;12.472;2023-05-13T01:06:01;10.58;91.99
72380;SHT30;60354;47.798;12.472;2023-05-13T01:11:24;10.58;91.55
72380;SHT30;60354;47.798;12.472;2023-05-13T01:14:15;10.61;91.23
72380;SHT30;60354;47.798;12.472;2023-05-13T01:19:46;10.71;91.04
72380;SHT30;60354;47.798;12.472;2023-05-13T01:22:13;10.71;90.53
72380;SHT30;60354;47.798;12.472;2023-05-13T01:24:40;10.71;90.99
72380;SHT30;60354;47.798;12.472;2023-05-13T01:27:06;10.68;90.68
72380;SHT30;60354;47.798;12.472;2023-05-13T01:29:31;10.64;90.90
72380;SHT30;60354;47.798;12.472;2023-05-13T01:31:59;10.64;90.78
72380;SHT30;60354;47.798;12.472;2023-05-13T01:34:26;10.67;91.31
72380;SHT30;60354;47.798;12.472;2023-05-13T01:36:53;10.65;90.95
72380;SHT30;60354;47.798;12.472;2023-05-13T01:39:19;10.64;91.34
72380;SHT30;60354;47.798;12.472;2023-05-13T01:41:47;10.69;91.76
72380;SHT30;60354;47.798;12.472;2023-05-13T01:44:12;10.68;91.70
72380;SHT30;60354;47.798;12.472;2023-05-13T01:46:38;10.74;91.65
72380;SHT30;60354;47.798;12.472;2023-05-13T01:49:03;10.72;91.56
72380;SHT30;60354;47.798;12.472;2023-05-13T01:51:30;10.76;91.51
72380;SHT30;60354;47.798;12.472;2023-05-13T01:53:56;10.79;90.94
72380;SHT30;60354;47.798;12.472;2023-05-13T01:56:22;10.76;91.50
72380;SHT30;60354;47.798;12.472;2023-05-13T01:58:48;10.75;91.38
72380;SHT30;60354;47.798;12.472;2023-05-13T02:01:14;10.75;91.72
72380;SHT30;60354;47.798;12.472;2023-05-13T02:03:41;10.78;91.54
72380;SHT30;60354;47.798;12.472;2023-05-13T02:06:07;10.79;91.29
72380;SHT30;60354;47.798;12.472;2023-05-13T02:08:32;10.78;91.14
72380;SHT30;60354;47.798;12.472;2023-05-13T02:10:59;10.65;91.22
72380;SHT30;60354;47.798;12.472;2023-05-13T02:13:27;10.48;92.13
72380;SHT30;60354;47.798;12.472;2023-05-13T02:15:53;10.40;92.55
72380;SHT30;60354;47.798;12.472;2023-05-13T02:18:19;10.37;92.87
72380;SHT30;60354;47.798;12.472;2023-05-13T02:20:45;10.34;92.75
72380;SHT30;60354;47.798;12.472;2023-05-13T02:23:11;10.38;93.15
72380;SHT30;60354;47.798;12.472;2023-05-13T02:25:37;10.32;92.86
72380;SHT30;60354;47.798;12.472;2023-05-13T02:28:02;10.37;93.04
72380;SHT30;60354;47.798;12.472;2023-05-13T02:30:28;10.34;93.02
72380;SHT30;60354;47.798;12.472;2023-05-13T02:32:54;10.30;93.36
72380;SHT30;60354;47.798;12.472;2023-05-13T02:35:20;10.36;92.21
72380;SHT30;60354;47.798;12.472;2023-05-13T02:37:47;10.30;93.02
72380;SHT30;60354;47.798;12.472;2023-05-13T02:40:14;10.20;93.20
72380;SHT30;60354;47.798;12.472;2023-05-13T02:42:40;10.20;93.77
72380;SHT30;60354;47.798;12.472;2023-05-13T02:45:06;10.16;93.86
72380;SHT30;60354;47.798;12.472;2023-05-13T02:47:34;10.14;94.32
72380;SHT30;60354;47.798;12.472;2023-05-13T02:50:03;10.12;94.01
72380;SHT30;60354;47.798;12.472;2023-05-13T02:52:30;10.17;94.58
72380;SHT30;60354;47.798;12.472;2023-05-13T02:54:56;10.20;94.01
72380;SHT30;60354;47.798;12.472;2023-05-13T02:57:22;10.16;93.67
72380;SHT30;60354;47.798;12.472;2023-05-13T02:59:48;10.13;93.84
72380;SHT30;60354;47.798;12.472;2023-05-13T03:02:13;10.12;93.63
72380;SHT30;60354;47.798;12.472;2023-05-13T03:04:39;10.17;94.06
72380;SHT30;60354;47.798;12.472;2023-05-13T03:07:05;10.24;93.76
72380;SHT30;60354;47.798;12.472;2023-05-13T03:09:31;10.30;93.79
72380;SHT30;60354;47.798;12.472;2023-05-13T03:11:56;10.34;93.78
72380;SHT30;60354;47.798;12.472;2023-05-13T03:14:22;10.36;93.08
72380;SHT30;60354;47.798;12.472;2023-05-13T03:16:48;10.33;93.13
72380;SHT30;60354;47.798;12.472;2023-05-13T03:19:13;10.33;93.37
72380;SHT30;60354;47.798;12.472;2023-05-13T03:21:39;10.33;93.09
72380;SHT30;60354;47.798;12.472;2023-05-13T03:24:08;10.32;93.61
72380;SHT30;60354;47.798;12.472;2023-05-13T03:26:33;10.27;93.32
72380;SHT30;60354;47.798;12.472;2023-05-13T03:28:59;10.21;93.40
72380;SHT30;60354;47.798;12.472;2023-05-13T03:31:26;10.23;93.88
72380;SHT30;60354;47.798;12.472;2023-05-13T03:33:52;10.24;93.52
72380;SHT30;60354;47.798;12.472;2023-05-13T03:36:18;10.21;93.59
72380;SHT30;60354;47.798;12.472;2023-05-13T03:38:43;10.10;93.64
72380;SHT30;60354;47.798;12.472;2023-05-13T03:41:09;10.16;93.96
72380;SHT30;60354;47.798;12.472;2023-05-13T03:43:34;10.06;93.88
72380;SHT30;60354;47.798;12.472;2023-05-13T03:46:04;10.05;94.24
72380;SHT30;60354;47.798;12.472;2023-05-13T03:48:30;10.00;94.08
72380;SHT30;60354;47.798;12.472;2023-05-13T03:50:58;9.99;94.23
72380;SHT30;60354;47.798;12.472;2023-05-13T03:53:24;10.03;94.45
72380;SHT30;60354;47.798;12.472;2023-05-13T03:55:51;10.00;94.52
72380;SHT30;60354;47.798;12.472;2023-05-13T03:58:17;10.05;94.39
72380;SHT30;60354;47.798;12.472;2023-05-13T04:00:43;10.02;94.05
72380;SHT30;60354;47.798;12.472;2023-05-13T04:03:13;10.02;94.66
72380;SHT30;60354;47.798;12.472;2023-05-13T04:05:40;9.95;94.54
72380;SHT30;60354;47.798;12.472;2023-05-13T04:08:06;9.96;94.47
72380;SHT30;60354;47.798;12.472;2023-05-13T04:10:32;9.90;95.02
72380;SHT30;60354;47.798;12.472;2023-05-13T04:12:57;9.95;95.19
72380;SHT30;60354;47.798;12.472;2023-05-13T04:15:23;9.99;94.98
72380;SHT30;60354;47.798;12.472;2023-05-13T04:17:48;9.95;94.95
72380;SHT30;60354;47.798;12.472;2023-05-13T04:20:14;10.02;94.70
72380;SHT30;60354;47.798;12.472;2023-05-13T04:22:39;10.00;94.91
72380;SHT30;60354;47.798;12.472;2023-05-13T04:25:05;10.03;94.75
72380;SHT30;60354;47.798;12.472;2023-05-13T04:27:31;9.99;94.93
72380;SHT30;60354;47.798;12.472;2023-05-13T04:30:04;10.09;94.92
72380;SHT30;60354;47.798;12.472;2023-05-13T04:32:32;10.05;95.05
72380;SHT30;60354;47.798;12.472;2023-05-13T04:34:58;10.07;95.01
72380;SHT30;60354;47.798;12.472;2023-05-13T04:37:25;10.07;94.98
72380;SHT30;60354;47.798;12.472;2023-05-13T04:39:54;10.06;94.93
72380;SHT30;60354;47.798;12.472;2023-05-13T04:42:21;10.09;94.66
72380;SHT30;60354;47.798;12.472;2023-05-13T04:44:47;10.07;94.90
72380;SHT30;60354;47.798;12.472;2023-05-13T04:47:13;10.13;94.77
72380;SHT30;60354;47.798;12.472;2023-05-13T04:49:38;10.12;94.68
72380;SHT30;60354;47.798;12.472;2023-05-13T04:52:05;10.14;94.81
72380;SHT30;60354;47.798;12.472;2023-05-13T04:54:31;10.16;94.51
72380;SHT30;60354;47.798;12.472;2023-05-13T04:57:00;10.14;94.72
72380;SHT30;60354;47.798;12.472;2023-05-13T04:59:26;10.20;94.49
72380;SHT30;60354;47.798;12.472;2023-05-13T05:01:52;10.20;93.62
72380;SHT30;60354;47.798;12.472;2023-05-13T05:04:17;10.16;93.48
72380;SHT30;60354;47.798;12.472;2023-05-13T05:06:44;10.18;94.15
72380;SHT30;60354;47.798;12.472;2023-05-13T05:09:10;10.23;94.07
72380;SHT30;60354;47.798;12.472;2023-05-13T05:11:36;10.20;94.26
72380;SHT30;60354;47.798;12.472;2023-05-13T05:14:02;10.16;94.00
72380;SHT30;60354;47.798;12.472;2023-05-13T05:16:28;10.29;94.38
72380;SHT30;60354;47.798;12.472;2023-05-13T05:18:56;10.32;94.06
72380;SHT30;60354;47.798;12.472;2023-05-13T05:21:21;10.32;93.97
72380;SHT30;60354;47.798;12.472;2023-05-13T05:23:48;10.29;93.88
72380;SHT30;60354;47.798;12.472;2023-05-13T05:26:13;10.33;93.98
72380;SHT30;60354;47.798;12.472;2023-05-13T05:28:42;10.34;93.99
72380;SHT30;60354;47.798;12.472;2023-05-13T05:31:07;10.30;93.35
72380;SHT30;60354;47.798;12.472;2023-05-13T05:33:34;10.34;93.92
72380;SHT30;60354;47.798;12.472;2023-05-13T05:36:00;10.34;94.08
72380;SHT30;60354;47.798;12.472;2023-05-13T05:38:26;10.38;94.42
72380;SHT30;60354;47.798;12.472;2023-05-13T05:40:54;10.32;93.94
72380;SHT30;60354;47.798;12.472;2023-05-13T05:43:20;10.32;94.49
72380;SHT30;60354;47.798;12.472;2023-05-13T05:45:45;10.34;94.22
72380;SHT30;60354;47.798;12.472;2023-05-13T05:48:15;10.36;94.05
72380;SHT30;60354;47.798;12.472;2023-05-13T05:50:41;10.38;94.50
72380;SHT30;60354;47.798;12.472;2023-05-13T05:53:09;10.24;94.13
72380;SHT30;60354;47.798;12.472;2023-05-13T05:55:37;10.21;94.45
72380;SHT30;60354;47.798;12.472;2023-05-13T05:58:02;10.13;94.79
72380;SHT30;60354;47.798;12.472;2023-05-13T06:00:31;10.17;95.02
72380;SHT30;60354;47.798;12.472;2023-05-13T06:02:57;10.16;95.22
72380;SHT30;60354;47.798;12.472;2023-05-13T06:05:22;10.17;94.99
72380;SHT30;60354;47.798;12.472;2023-05-13T06:07:48;10.20;95.33
72380;SHT30;60354;47.798;12.472;2023-05-13T06:10:14;10.21;94.67
72380;SHT30;60354;47.798;12.472;2023-05-13T06:12:40;10.30;95.26
72380;SHT30;60354;47.798;12.472;2023-05-13T06:15:08;10.29;94.83
72380;SHT30;60354;47.798;12.472;2023-05-13T06:17:37;10.37;95.09
72380;SHT30;60354;47.798;12.472;2023-05-13T06:20:04;10.43;94.96
72380;SHT30;60354;47.798;12.472;2023-05-13T06:22:30;10.57;95.54
72380;SHT30;60354;47.798;12.472;2023-05-13T06:24:56;10.69;93.61
72380;SHT30;60354;47.798;12.472;2023-05-13T06:27:21;10.74;93.67
72380;SHT30;60354;47.798;12.472;2023-05-13T06:29:47;10.72;93.91
72380;SHT30;60354;47.798;12.472;2023-05-13T06:32:13;10.64;93.91
72380;SHT30;60354;47.798;12.472;2023-05-13T06:34:40;10.61;94.13
72380;SHT30;60354;47.798;12.472;2023-05-13T06:37:10;10.60;94.29
72380;SHT30;60354;47.798;12.472;2023-05-13T06:39:36;10.47;94.66
72380;SHT30;60354;47.798;12.472;2023-05-13T06:42:03;10.57;96.17
72380;SHT30;60354;47.798;12.472;2023-05-13T06:44:32;10.41;95.46
72380;SHT30;60354;47.798;12.472;2023-05-13T06:46:57;10.34;94.67
72380;SHT30;60354;47.798;12.472;2023-05-13T06:49:22;10.34;95.40
72380;SHT30;60354;47.798;12.472;2023-05-13T06:51:52;10.53;94.40
72380;SHT30;60354;47.798;12.472;2023-05-13T06:54:18;10.38;94.91
72380;SHT30;60354;47.798;12.472;2023-05-13T06:56:43;10.53;95.55
72380;SHT30;60354;47.798;12.472;2023-05-13T06:59:09;10.57;95.08
72380;SHT30;60354;47.798;12.472;2023-05-13T07:01:34;10.45;94.94
72380;SHT30;60354;47.798;12.472;2023-05-13T07:04:00;10.38;95.16
72380;SHT30;60354;47.798;12.472;2023-05-13T07:06:25;10.51;95.38
72380;SHT30;60354;47.798;12.472;2023-05-13T07:08:50;10.54;95.51
72380;SHT30;60354;47.798;12.472;2023-05-13T07:11:17;10.47;94.73
72380;SHT30;60354;47.798;12.472;2023-05-13T07:13:42;10.57;94.55
72380;SHT30;60354;47.798;12.472;2023-05-13T07:16:08;10.61;94.76
72380;SHT30;60354;47.798;12.472;2023-05-13T07:18:34;10.79;95.44
72380;SHT30;60354;47.798;12.472;2023-05-13T07:20:59;10.81;95.06
72380;SHT30;60354;47.798;12.472;2023-05-13T07:23:25;10.81;94.57
72380;SHT30;60354;47.798;12.472;2023-05-13T07:25:50;10.88;93.88
72380;SHT30;60354;47.798;12.472;2023-05-13T07:28:19;11.09;93.79
72380;SHT30;60354;47.798;12.472;2023-05-13T07:30:45;11.20;92.52
72380;SHT30;60354;47.798;12.472;2023-05-13T07:33:11;11.20;92.82
72380;SHT30;60354;47.798;12.472;2023-05-13T07:35:37;11.22;93.14
72380;SHT30;60354;47.798;12.472;2023-05-13T07:38:03;11.26;92.01
72380;SHT30;60354;47.798;12.472;2023-05-13T07:40:28;11.43;93.15
72380;SHT30;60354;47.798;12.472;2023-05-13T07:42:54;11.60;92.49
72380;SHT30;60354;47.798;12.472;2023-05-13T07:45:19;11.64;89.81
72380;SHT30;60354;47.798;12.472;2023-05-13T07:47:45;11.63;90.55
72380;SHT30;60354;47.798;12.472;2023-05-13T07:50:10;11.87;92.51
72380;SHT30;60354;47.798;12.472;2023-05-13T07:52:36;11.69;90.19
72380;SHT30;60354;47.798;12.472;2023-05-13T07:55:02;11.70;90.79
72380;SHT30;60354;47.798;12.472;2023-05-13T07:57:28;11.67;89.75
72380;SHT30;60354;47.798;12.472;2023-05-13T07:59:53;11.66;91.12
72380;SHT30;60354;47.798;12.472;2023-05-13T08:02:19;11.66;92.71
72380;SHT30;60354;47.798;12.472;2023-05-13T08:04:44;11.78;91.96
72380;SHT30;60354;47.798;12.472;2023-05-13T08:07:10;11.84;91.54
72380;SHT30;60354;47.798;12.472;2023-05-13T08:09:36;12.01;92.26
72380;SHT30;60354;47.798;12.472;2023-05-13T08:12:02;12.10;91.46
72380;SHT30;60354;47.798;12.472;2023-05-13T08:14:27;12.05;92.68
72380;SHT30;60354;47.798;12.472;2023-05-13T08:16:53;12.25;88.88
72380;SHT30;60354;47.798;12.472;2023-05-13T08:19:19;12.20;90.65
72380;SHT30;60354;47.798;12.472;2023-05-13T08:21:44;12.28;90.75
72380;SHT30;60354;47.798;12.472;2023-05-13T08:24:10;12.36;90.74
72380;SHT30;60354;47.798;12.472;2023-05-13T08:26:36;12.26;90.53
72380;SHT30;60354;47.798;12.472;2023-05-13T08:29:01;12.14;89.30
72380;SHT30;60354;47.798;12.472;2023-05-13T08:31:27;12.24;91.43
72380;SHT30;60354;47.798;12.472;2023-05-13T08:33:53;12.02;89.52
72380;SHT30;60354;47.798;12.472;2023-05-13T08:36:19;12.08;91.37
72380;SHT30;60354;47.798;12.472;2023-05-13T08:38:44;11.99;89.57
72380;SHT30;60354;47.798;12.472;2023-05-13T08:41:13;11.84;91.14
72380;SHT30;60354;47.798;12.472;2023-05-13T08:43:42;11.78;91.15
72380;SHT30;60354;47.798;12.472;2023-05-13T08:46:11;11.87;91.61
72380;SHT30;60354;47.798;12.472;2023-05-13T08:48:40;11.90;91.54
72380;SHT30;60354;47.798;12.472;2023-05-13T08:51:07;11.97;91.38
72380;SHT30;60354;47.798;12.472;2023-05-13T08:53:38;11.87;90.74
72380;SHT30;60354;47.798;12.472;2023-05-13T08:56:04;11.76;90.37
72380;SHT30;60354;47.798;12.472;2023-05-13T08:58:30;11.87;90.87
72380;SHT30;60354;47.798;12.472;2023-05-13T09:00:56;11.84;90.23
72380;SHT30;60354;47.798;12.472;2023-05-13T09:03:23;11.91;90.67
72380;SHT30;60354;47.798;12.472;2023-05-13T09:05:50;12.14;89.50
72380;SHT30;60354;47.798;12.472;2023-05-13T09:08:15;12.42;87.64
72380;SHT30;60354;47.798;12.472;2023-05-13T09:10:41;12.75;87.78
72380;SHT30;60354;47.798;12.472;2023-05-13T09:13:06;12.86;85.98
72380;SHT30;60354;47.798;12.472;2023-05-13T09:15:32;12.93;86.49
72380;SHT30;60354;47.798;12.472;2023-05-13T09:20:24;12.95;84.72
72380;SHT30;60354;47.798;12.472;2023-05-13T09:23:04;12.96;84.73
72380;SHT30;60354;47.798;12.472;2023-05-13T09:25:30;13.02;85.42
72380;SHT30;60354;47.798;12.472;2023-05-13T09:28:00;13.00;86.75
72380;SHT30;60354;47.798;12.472;2023-05-13T09:30:31;12.82;85.12
72380;SHT30;60354;47.798;12.472;2023-05-13T09:35:33;12.69;87.08
72380;SHT30;60354;47.798;12.472;2023-05-13T09:37:58;12.66;87.50
72380;SHT30;60354;47.798;12.472;2023-05-13T09:40:24;12.62;86.19
72380;SHT30;60354;47.798;12.472;2023-05-13T09:42:50;12.63;86.97
72380;SHT30;60354;47.798;12.472;2023-05-13T09:45:16;12.55;85.47
72380;SHT30;60354;47.798;12.472;2023-05-13T09:47:42;12.53;86.57
72380;SHT30;60354;47.798;12.472;2023-05-13T09:50:09;12.69;86.25
72380;SHT30;60354;47.798;12.472;2023-05-13T09:52:36;12.67;85.22
72380;SHT30;60354;47.798;12.472;2023-05-13T09:55:03;12.83;86.18
72380;SHT30;60354;47.798;12.472;2023-05-13T09:57:32;12.89;84.30
72380;SHT30;60354;47.798;12.472;2023-05-13T10:00:01;13.06;84.73
72380;SHT30;60354;47.798;12.472;2023-05-13T10:02:37;12.97;84.94
72380;SHT30;60354;47.798;12.472;2023-05-13T10:05:03;12.80;83.99
72380;SHT30;60354;47.798;12.472;2023-05-13T10:07:30;12.73;84.23
72380;SHT30;60354;47.798;12.472;2023-05-13T10:10:00;12.66;85.85
72380;SHT30;60354;47.798;12.472;2023-05-13T10:12:27;12.45;86.42
72380;SHT30;60354;47.798;12.472;2023-05-13T10:14:54;12.49;86.04
72380;SHT30;60354;47.798;12.472;2023-05-13T10:17:22;12.48;86.91
72380;SHT30;60354;47.798;12.472;2023-05-13T10:19:49;12.24;87.67
72380;SHT30;60354;47.798;12.472;2023-05-13T10:22:24;12.15;90.59
72380;SHT30;60354;47.798;12.472;2023-05-13T10:24:52;12.04;89.87
72380;SHT30;60354;47.798;12.472;2023-05-13T10:27:19;12.10;89.63
72380;SHT30;60354;47.798;12.472;2023-05-13T10:29:46;12.08;89.65
72380;SHT30;60354;47.798;12.472;2023-05-13T10:32:15;12.14;91.62
72380;SHT30;60354;47.798;12.472;2023-05-13T10:34:41;12.20;91.58
72380;SHT30;60354;47.798;12.472;2023-05-13T10:42:55;12.56;92.01
72380;SHT30;60354;47.798;12.472;2023-05-13T10:45:25;12.57;90.15
72380;SHT30;60354;47.798;12.472;2023-05-13T10:47:53;12.76;89.74
72380;SHT30;60354;47.798;12.472;2023-05-13T10:50:23;12.96;89.60
72380;SHT30;60354;47.798;12.472;2023-05-13T10:52:49;12.99;89.51
72380;SHT30;60354;47.798;12.472;2023-05-13T10:55:17;13.14;90.22
72380;SHT30;60354;47.798;12.472;2023-05-13T10:58:11;13.23;90.92
72380;SHT30;60354;47.798;12.472;2023-05-13T11:00:38;13.33;89.71
72380;SHT30;60354;47.798;12.472;2023-05-13T11:03:27;13.38;90.56
72380;SHT30;60354;47.798;12.472;2023-05-13T11:06:03;13.38;89.45
72380;SHT30;60354;47.798;12.472;2023-05-13T11:08:49;13.31;87.97
72380;SHT30;60354;47.798;12.472;2023-05-13T11:11:21;13.33;88.95
72380;SHT30;60354;47.798;12.472;2023-05-13T11:19:35;13.59;88.21
72380;SHT30;60354;47.798;12.472;2023-05-13T11:24:36;13.72;87.57
72380;SHT30;60354;47.798;12.472;2023-05-13T11:27:19;13.72;87.79
72380;SHT30;60354;47.798;12.472;2023-05-13T11:29:54;13.58;85.66
72380;SHT30;60354;47.798;12.472;2023-05-13T11:35:22;13.62;86.18
72380;SHT30;60354;47.798;12.472;2023-05-13T11:37:48;13.68;86.60
72380;SHT30;60354;47.798;12.472;2023-05-13T11:40:27;13.74;84.91
72380;SHT30;60354;47.798;12.472;2023-05-13T11:42:53;13.74;85.82
72380;SHT30;60354;47.798;12.472;2023-05-13T11:45:21;13.79;85.48
72380;SHT30;60354;47.798;12.472;2023-05-13T11:47:46;13.89;85.95
72380;SHT30;60354;47.798;12.472;2023-05-13T11:50:22;13.89;83.85
72380;SHT30;60354;47.798;12.472;2023-05-13T11:55:30;14.02;85.72
72380;SHT30;60354;47.798;12.472;2023-05-13T11:57:59;14.06;84.42
72380;SHT30;60354;47.798;12.472;2023-05-13T12:00:34;13.85;83.41
72380;SHT30;60354;47.798;12.472;2023-05-13T12:03:04;13.66;85.10
72380;SHT30;60354;47.798;12.472;2023-05-13T12:05:33;13.74;86.36
72380;SHT30;60354;47.798;12.472;2023-05-13T12:07:58;13.72;84.41
72380;SHT30;60354;47.798;12.472;2023-05-13T12:10:24;13.72;83.30
72380;SHT30;60354;47.798;12.472;2023-05-13T12:12:50;13.86;83.06
72380;SHT30;60354;47.798;12.472;2023-05-13T12:15:17;13.89;86.54
72380;SHT30;60354;47.798;12.472;2023-05-13T12:17:43;13.89;83.70
72380;SHT30;60354;47.798;12.472;2023-05-13T12:27:58;14.29;83.95
72380;SHT30;60354;47.798;12.472;2023-05-13T12:30:23;14.33;84.55
72380;SHT30;60354;47.798;12.472;2023-05-13T12:32:49;14.40;83.19
72380;SHT30;60354;47.798;12.472;2023-05-13T12:35:14;14.73;82.98
72380;SHT30;60354;47.798;12.472;2023-05-13T12:37:40;14.84;80.49
72380;SHT30;60354;47.798;12.472;2023-05-13T12:40:13;14.92;81.08
72380;SHT30;60354;47.798;12.472;2023-05-13T12:42:45;14.94;79.89
72380;SHT30;60354;47.798;12.472;2023-05-13T12:45:11;15.04;80.28
72380;SHT30;60354;47.798;12.472;2023-05-13T12:47:49;15.01;79.08
72380;SHT30;60354;47.798;12.472;2023-05-13T12:50:15;15.14;79.14
72380;SHT30;60354;47.798;12.472;2023-05-13T12:52:40;15.07;76.36
72380;SHT30;60354;47.798;12.472;2023-05-13T12:55:06;15.19;77.74
72380;SHT30;60354;47.798;12.472;2023-05-13T12:57:31;15.16;76.74
72380;SHT30;60354;47.798;12.472;2023-05-13T12:59:57;15.08;78.04
72380;SHT30;60354;47.798;12.472;2023-05-13T13:02:22;14.89;78.53
72380;SHT30;60354;47.798;12.472;2023-05-13T13:04:48;14.89;78.80
72380;SHT30;60354;47.798;12.472;2023-05-13T13:07:13;14.76;77.45
72380;SHT30;60354;47.798;12.472;2023-05-13T13:09:39;14.66;78.08
72380;SHT30;60354;47.798;12.472;2023-05-13T13:12:04;14.73;78.86
72380;SHT30;60354;47.798;12.472;2023-05-13T13:14:30;14.73;78.14
72380;SHT30;60354;47.798;12.472;2023-05-13T13:16:56;14.73;78.68
72380;SHT30;60354;47.798;12.472;2023-05-13T13:19:21;14.64;79.33
72380;SHT30;60354;47.798;12.472;2023-05-13T13:21:47;14.59;78.48
72380;SHT30;60354;47.798;12.472;2023-05-13T13:24:12;14.63;78.98
72380;SHT30;60354;47.798;12.472;2023-05-13T13:26:38;14.51;78.98
72380;SHT30;60354;47.798;12.472;2023-05-13T13:29:03;14.66;79.66
72380;SHT30;60354;47.798;12.472;2023-05-13T13:31:28;14.73;80.55
72380;SHT30;60354;47.798;12.472;2023-05-13T13:33:54;14.70;78.86
72380;SHT30;60354;47.798;12.472;2023-05-13T13:36:21;14.97;79.39
72380;SHT30;60354;47.798;12.472;2023-05-13T13:38:46;15.11;77.97
72380;SHT30;60354;47.798;12.472;2023-05-13T13:41:12;15.36;77.61
72380;SHT30;60354;47.798;12.472;2023-05-13T13:43:37;15.62;73.80
72380;SHT30;60354;47.798;12.472;2023-05-13T13:46:03;15.79;75.38
72380;SHT30;60354;47.798;12.472;2023-05-13T13:48:28;15.91;74.19
72380;SHT30;60354;47.798;12.472;2023-05-13T13:50:54;15.96;74.53
72380;SHT30;60354;47.798;12.472;2023-05-13T13:53:20;15.70;74.49
72380;SHT30;60354;47.798;12.472;2023-05-13T13:55:46;15.90;73.93
72380;SHT30;60354;47.798;12.472;2023-05-13T13:58:11;16.10;75.27
72380;SHT30;60354;47.798;12.472;2023-05-13T14:00:37;16.06;74.00
72380;SHT30;60354;47.798;12.472;2023-05-13T14:03:02;16.08;73.06
72380;SHT30;60354;47.798;12.472;2023-05-13T14:05:28;16.35;73.37
72380;SHT30;60354;47.798;12.472;2023-05-13T14:07:54;16.68;72.67
72380;SHT30;60354;47.798;12.472;2023-05-13T14:10:20;16.79;72.33
72380;SHT30;60354;47.798;12.472;2023-05-13T14:12:46;16.44;70.46
72380;SHT30;60354;47.798;12.472;2023-05-13T14:15:11;16.28;71.93
72380;SHT30;60354;47.798;12.472;2023-05-13T14:17:37;16.31;73.83
72380;SHT30;60354;47.798;12.472;2023-05-13T14:20:03;16.14;71.44
72380;SHT30;60354;47.798;12.472;2023-05-13T14:22:29;15.77;72.78
72380;SHT30;60354;47.798;12.472;2023-05-13T14:24:54;15.70;72.65
72380;SHT30;60354;47.798;12.472;2023-05-13T14:27:20;15.73;74.92
72380;SHT30;60354;47.798;12.472;2023-05-13T14:29:46;15.59;73.61
72380;SHT30;60354;47.798;12.472;2023-05-13T14:32:12;15.50;76.28
72380;SHT30;60354;47.798;12.472;2023-05-13T14:34:38;15.53;75.36
72380;SHT30;60354;47.798;12.472;2023-05-13T14:37:03;15.47;74.03
72380;SHT30;60354;47.798;12.472;2023-05-13T14:39:29;15.49;75.92
72380;SHT30;60354;47.798;12.472;2023-05-13T14:41:54;15.34;75.57
72380;SHT30;60354;47.798;12.472;2023-05-13T14:44:20;15.34;75.37
72380;SHT30;60354;47.798;12.472;2023-05-13T14:46:45;15.36;75.85
72380;SHT30;60354;47.798;12.472;2023-05-13T14:49:11;15.39;76.65
72380;SHT30;60354;47.798;12.472;2023-05-13T14:51:36;15.47;77.01
72380;SHT30;60354;47.798;12.472;2023-05-13T14:54:02;15.52;75.02
72380;SHT30;60354;47.798;12.472;2023-05-13T14:56:28;15.67;74.16
72380;SHT30;60354;47.798;12.472;2023-05-13T14:58:53;15.60;74.09
72380;SHT30;60354;47.798;12.472;2023-05-13T15:01:19;15.70;73.19
72380;SHT30;60354;47.798;12.472;2023-05-13T15:03:44;15.60;73.09
72380;SHT30;60354;47.798;12.472;2023-05-13T15:06:10;15.59;72.36
72380;SHT30;60354;47.798;12.472;2023-05-13T15:08:36;15.59;72.60
72380;SHT30;60354;47.798;12.472;2023-05-13T15:11:02;15.67;73.07
72380;SHT30;60354;47.798;12.472;2023-05-13T15:13:28;15.65;72.18
72380;SHT30;60354;47.798;12.472;2023-05-13T15:15:56;15.76;71.78
72380;SHT30;60354;47.798;12.472;2023-05-13T15:18:22;15.91;72.93
72380;SHT30;60354;47.798;12.472;2023-05-13T15:20:47;15.87;73.62
72380;SHT30;60354;47.798;12.472;2023-05-13T15:23:13;15.93;72.89
72380;SHT30;60354;47.798;12.472;2023-05-13T15:25:38;16.04;72.64
72380;SHT30;60354;47.798;12.472;2023-05-13T15:28:04;16.08;72.54
72380;SHT30;60354;47.798;12.472;2023-05-13T15:30:29;16.13;73.07
72380;SHT30;60354;47.798;12.472;2023-05-13T15:32:55;16.16;72.53
72380;SHT30;60354;47.798;12.472;2023-05-13T15:35:21;16.14;71.65
72380;SHT30;60354;47.798;12.472;2023-05-13T15:37:46;16.13;73.06
72380;SHT30;60354;47.798;12.472;2023-05-13T15:40:13;16.07;72.41
72380;SHT30;60354;47.798;12.472;2023-05-13T15:42:38;16.08;72.63
72380;SHT30;60354;47.798;12.472;2023-05-13T15:45:05;16.07;72.88
72380;SHT30;60354;47.798;12.472;2023-05-13T15:47:31;16.11;71.88
72380;SHT30;60354;47.798;12.472;2023-05-13T15:49:56;16.22;71.51
72380;SHT30;60354;47.798;12.472;2023-05-13T15:52:22;16.28;71.73
72380;SHT30;60354;47.798;12.472;2023-05-13T15:54:48;16.34;72.00
72380;SHT30;60354;47.798;12.472;2023-05-13T15:57:13;16.37;71.50